• Join FlightAware (Why Join?)
  • Login
  • US Flag 
03:11PM EST


 

Airport Tracker/Info


-or-


 

Live Flight TrackerFlight Track Log ✈ N27XP ✈ 26-Mar-2014 ✈ KIPJ - KMSP

Flight Track Log - Related Links

Times and Time Zones

All times are in EDT time to prevent confusion due to time zone crossing. See the N27XP flight status page for this flight to view local times or setup timezone preferences in your user account.

Time Position Orientation Groundspeed Altitude Reporting Facility
EDT Latitude Longitude Course Direction KTS MPH feet Rate Location/Type
07:39PM 35.4883 -81.2508 352° North 268 308 3,400  Level Atlanta Center
07:40PM 35.5617 -81.2636 352° North 268 308 5,200 1,740 Climbing Atlanta Center
07:40PM 35.5800 -81.2403 46° Northeast 283 326 6,000 1,920 Climbing Atlanta Center
07:41PM 35.6397 -81.2050 26° Northeast 281 323 7,900 1,920 Climbing Atlanta Center
07:42PM 35.7128 -81.2100 357° North 257 296 9,900 1,860 Climbing Atlanta Center
07:43PM 35.7806 -81.2564 331° Northwest 257 296 11,700 1,680 Climbing Atlanta Center
07:44PM 35.8528 -81.3078 330° Northwest 272 313 13,300 1,500 Climbing Atlanta Center
07:45PM 35.9289 -81.3642 329° Northwest 302 348 14,800 1,500 Climbing Atlanta Center
07:46PM 36.0072 -81.4156 332° Northwest 313 360 16,400 1,560 Climbing Atlanta Center
07:47PM 36.0836 -81.4719 329° Northwest 318 366 18,000 1,380 Climbing Atlanta Center
07:48PM 36.1639 -81.5233 333° Northwest 323 372 19,200 1,380 Climbing Atlanta Center
07:49PM 36.2422 -81.5778 331° Northwest 317 365 20,800 1,320 Climbing Atlanta Center
07:50PM 36.3225 -81.6344 330° Northwest 323 372 21,900 1,140 Climbing Atlanta Center
07:51PM 36.4011 -81.7017 325° Northwest 335 386 23,100 1,200 Climbing Atlanta Center
07:52PM 36.4817 -81.7744 324° Northwest 345 397 24,400 1,320 Climbing Atlanta Center
07:53PM 36.5664 -81.8469 326° Northwest 345 397 25,800 1,320 Climbing Atlanta Center
07:54PM 36.6489 -81.9197 325° Northwest 350 403 27,100 1,080 Climbing Atlanta Center
07:56PM 36.8008 -82.0517 325° Northwest 359 413 29,000 960 Climbing Indianapolis Center
07:57PM 36.8864 -82.1269 325° Northwest 370 426 30,000 1,020 Climbing Indianapolis Center
07:58PM 36.9867 -82.2144 325° Northwest 372 428 31,200 1,020 Climbing Indianapolis Center
07:59PM 37.0731 -82.2906 325° Northwest 375 432 32,100 900 Climbing Indianapolis Center
08:00PM 37.1578 -82.3664 325° Northwest 375 432 33,100 960 Climbing Indianapolis Center
08:01PM 37.2425 -82.4411 325° Northwest 375 432 34,100 900 Climbing Indianapolis Center
08:02PM 37.3256 -82.5158 324° Northwest 374 430 35,000 960 Climbing Indianapolis Center
08:03PM 37.4208 -82.6017 324° Northwest 367 422 36,200 1,020 Climbing Indianapolis Center
08:04PM 37.4911 -82.6869 316° Northwest 355 409 37,200 780 Climbing Indianapolis Center
08:05PM 37.5575 -82.7761 313° West 353 406 37,900 660 Climbing Indianapolis Center
08:06PM 37.6258 -82.8628 315° West 351 404 38,600 660 Climbing Indianapolis Center
08:07PM 37.7056 -82.9361 324° Northwest 353 406 39,300 480 Climbing Indianapolis Center
08:08PM 37.7856 -83.0081 325° Northwest 353 406 39,700 300 Climbing Indianapolis Center
08:09PM 37.8803 -83.0914 325° Northwest 353 406 40,000 120 Climbing Indianapolis Center
08:10PM 37.9639 -83.1675 324° Northwest 364 419 40,000  Level Indianapolis Center
08:11PM 38.0483 -83.2436 325° Northwest 368 423 40,000  Level Indianapolis Center
08:12PM 38.1353 -83.3228 324° Northwest 378 435 40,000  Level Indianapolis Center
08:13PM 38.2214 -83.4025 324° Northwest 380 437 40,000  Level Indianapolis Center
08:15PM 38.3100 -83.4814 325° Northwest 382 440 40,000  Level Indianapolis Center
08:16PM 38.4122 -83.5753 324° Northwest 384 442 40,000  Level Indianapolis Center
08:17PM 38.5000 -83.6561 324° Northwest 386 444 40,000  Level Indianapolis Center
08:18PM 38.5881 -83.7367 324° Northwest 387 445 40,000  Level Indianapolis Center
08:19PM 38.6806 -83.8225 324° Northwest 387 445 40,000  Level Indianapolis Center
08:20PM 38.7678 -83.9031 324° Northwest 387 445 40,000  Level Indianapolis Center
08:21PM 38.8553 -83.9844 324° Northwest 387 445 40,000  Level Indianapolis Center
08:22PM 38.9431 -84.0664 324° Northwest 387 445 40,000  Level Indianapolis Center
08:23PM 39.0308 -84.1472 324° Northwest 387 445 40,000  Level Indianapolis Center
08:24PM 39.1189 -84.2308 324° Northwest 388 447 40,000  Level Indianapolis Center
08:25PM 39.2064 -84.3131 324° Northwest 389 448 40,000  Level Indianapolis Center
08:26PM 39.3119 -84.4114 324° Northwest 389 448 40,000  Level Indianapolis Center
08:27PM 39.4011 -84.4961 324° Northwest 390 449 40,000  Level Indianapolis Center
08:28PM 39.4892 -84.5806 324° Northwest 392 451 40,000  Level Indianapolis Center
08:29PM 39.5772 -84.6647 324° Northwest 392 451 40,000  Level Indianapolis Center
08:30PM 39.6647 -84.7481 324° Northwest 392 451 40,000  Level Indianapolis Center
08:31PM 39.7542 -84.8333 324° Northwest 393 452 40,000  Level Indianapolis Center
08:32PM 39.8511 -84.9256 324° Northwest 393 452 40,000  Level Indianapolis Center
08:33PM 39.9389 -85.0111 323° Northwest 393 452 40,000  Level Indianapolis Center
08:34PM 40.0264 -85.0958 323° Northwest 393 452 40,000  Level Indianapolis Center
08:35PM 40.1136 -85.1800 324° Northwest 393 452 40,000  Level Indianapolis Center
08:36PM 40.2014 -85.2650 324° Northwest 393 452 40,000  Level Indianapolis Center
08:37PM 40.3053 -85.3683 323° Northwest 393 452 40,000  Level Indianapolis Center
08:38PM 40.3931 -85.4542 323° Northwest 393 452 40,000  Level Indianapolis Center
08:39PM 40.4800 -85.5394 323° Northwest 393 452 40,000  Level Indianapolis Center
08:40PM 40.5672 -85.6261 323° Northwest 393 452 40,000  Level Indianapolis Center
08:41PM 40.6556 -85.7122 324° Northwest 394 453 40,000  Level Indianapolis Center
08:42PM 40.7431 -85.7997 323° Northwest 394 453 40,000  Level Indianapolis Center
08:43PM 40.8292 -85.8869 323° Northwest 394 453 40,000  Level Indianapolis Center
08:44PM 40.9339 -85.9925 323° Northwest 394 453 40,000  Level Indianapolis Center
08:45PM 41.0208 -86.0797 323° Northwest 394 453 40,000  Level Indianapolis Center
08:46PM 41.1083 -86.1678 323° Northwest 394 453 40,000  Level Indianapolis Center
08:47PM 41.1950 -86.2547 323° Northwest 394 453 40,000  Level Indianapolis Center
08:48PM 41.2814 -86.3442 322° Northwest 394 453 40,000  Level Indianapolis Center
08:50PM 41.3972 -86.4622 323° Northwest 393 452 40,000  Level Chicago Center
08:51PM 41.4861 -86.5531 323° Northwest 397 457 40,000  Level Chicago Center
08:52PM 41.5733 -86.6414 323° Northwest 396 456 40,000  Level Chicago Center
08:53PM 41.6694 -86.7411 322° Northwest 396 456 40,000  Level Chicago Center
08:54PM 41.7558 -86.8300 323° Northwest 396 456 40,000  Level Chicago Center
08:55PM 41.8414 -86.9203 322° Northwest 395 455 40,000  Level Chicago Center
08:56PM 41.9281 -87.0100 322° Northwest 394 453 40,000  Level Chicago Center
08:57PM 42.0131 -87.1008 322° Northwest 395 455 40,000  Level Chicago Center
08:58PM 42.1133 -87.2061 322° Northwest 383 441 40,000  Level Chicago Center
08:59PM 42.1897 -87.3086 315° West 387 445 40,000  Level Chicago Center
09:00PM 42.2661 -87.4117 315° West 389 448 40,000  Level Chicago Center
09:01PM 42.3428 -87.5153 315° West 389 448 40,000  Level Chicago Center
09:02PM 42.4342 -87.6375 315° West 389 448 40,000  Level Chicago Center
09:03PM 42.5097 -87.7400 315° West 387 445 40,000  Level Chicago Center
09:04PM 42.5917 -87.8542 314° West 387 445 40,000  Level Chicago Center
09:05PM 42.6683 -87.9569 315° West 388 447 40,000  Level Chicago Center
09:06PM 42.7447 -88.0628 315° West 388 447 40,000  Level Chicago Center
09:07PM 42.8203 -88.1683 314° West 389 448 40,000  Level Chicago Center
09:08PM 42.8964 -88.2742 314° West 389 448 40,000  Level Chicago Center
09:09PM 42.9733 -88.3806 315° West 390 449 40,000  Level Chicago Center
09:10PM 43.0653 -88.5086 315° West 391 450 40,000  Level Chicago Center
09:11PM 43.1419 -88.6150 315° West 391 450 40,000  Level Chicago Center
09:12PM 43.2186 -88.7219 315° West 391 450 40,000  Level Chicago Center
09:13PM 43.2942 -88.8294 314° West 391 450 40,000  Level Chicago Center
09:15PM 43.3689 -88.9372 314° West 390 449 40,000  Level Chicago Center
09:16PM 43.4447 -89.0447 314° West 390 449 40,000  Level Chicago Center
09:17PM 43.5189 -89.1500 314° West 386 444 40,000  Level Chicago Center
09:18PM 43.5931 -89.2578 314° West 386 444 40,000 -300 Level Chicago Center
09:19PM 43.6828 -89.3856 314° West 386 444 39,400 -780 Descending Chicago Center
09:20PM 43.7569 -89.4922 314° West 386 444 38,400 -960 Descending Chicago Center
09:21PM 43.8317 -89.6014 314° West 389 448 37,500 -1,020 Descending Chicago Center
09:22PM 43.9081 -89.7122 314° West 394 453 36,400 -1,020 Descending Chicago Center
09:23PM 43.9850 -89.8233 314° West 398 458 35,400 -1,020 Descending Chicago Center
09:24PM 44.0611 -89.9372 313° West 400 460 34,400 -720 Descending Chicago Center
09:25PM 44.1294 -90.0569 309° West 400 460 34,000 -300 Descending Chicago Center
09:25PM 44.1692 -90.1303 307° West 399 459 34,000  Level Minneapolis Center
09:26PM 44.2364 -90.2514 308° West 399 459 34,000  Level Minneapolis Center
09:27PM 44.3164 -90.3972 308° West 398 458 34,000  Level Minneapolis Center
09:28PM 44.3822 -90.5189 307° West 397 457 34,000  Level Minneapolis Center
09:30PM 44.4400 -90.6469 302° West 395 455 34,000 -60 Level Minneapolis Center
09:31PM 44.4883 -90.7825 297° West 393 452 33,900 -1,080 Descending Minneapolis Center
09:32PM 44.5433 -90.9308 298° West 392 451 31,800 -2,040 Descending Minneapolis Center
09:33PM 44.5944 -91.0647 298° West 392 451 29,700 -2,100 Descending Minneapolis Center
09:34PM 44.6475 -91.2039 298° West 398 458 27,500 -2,100 Descending Minneapolis Center
09:35PM 44.7000 -91.3428 298° West 402 463 25,400 -2,100 Descending Minneapolis Center
09:36PM 44.7519 -91.4822 298° West 402 463 23,200 -2,160 Descending Minneapolis Center
09:37PM 44.8125 -91.6458 298° West 400 460 21,000 -2,220 Descending Minneapolis Center
09:38PM 44.8617 -91.7786 298° West 391 450 18,700 -2,040 Descending Minneapolis Center
09:39PM 44.9092 -91.9067 298° West 375 432 16,900 -1,860 Descending Minneapolis Center
09:40PM 44.9553 -92.0344 297° West 370 426 15,000 -1,860 Descending Minneapolis Center
09:41PM 45.0019 -92.1606 298° West 367 422 13,100 -1,860 Descending Minneapolis Center
09:42PM 45.0458 -92.2867 296° West 365 420 11,200 -1,080 Descending Minneapolis Center
09:43PM 45.0275 -92.4164 259° West 340 391 11,000 -60 Descending Minneapolis Center
09:44PM 45.0033 -92.5728 258° West 341 392 11,100  Climbing Minneapolis Center
09:45PM 44.9822 -92.7039 257° West 341 392 11,000 -300 Descending Minneapolis Center
09:46PM 44.9611 -92.8347 257° West 345 397 10,500 -840 Descending Minneapolis Center
09:47PM 44.9444 -92.9422 258° West 288 331 9,400 -1,020 Descending Minneapolis Center
09:48PM 44.9278 -93.0450 257° West 274 315 8,500 -660 Descending Minneapolis Center
09:49PM 44.9675 -93.1303 303° West 273 314 8,100 -300 Descending Minneapolis Center
09:50PM 45.0267 -93.2217 313° West 255 293 8,000 -180 Descending Minneapolis Center
09:51PM 45.0664 -93.2772 315° West 206 237 7,800 -780 Descending Minneapolis Center
09:52PM 45.1033 -93.3236 318° Northwest 185 213 6,500 -1,320 Descending Minneapolis Center
09:53PM 45.1264 -93.3778 301° West 172 198 5,100 -780 Descending Minneapolis Center
09:54PM 45.1164 -93.4311 255° West 145 167 5,000 -300 Descending Minneapolis Center
09:55PM 45.0933 -93.4672 228° Southwest 129 148 4,500 -540 Descending Minneapolis Center
09:56PM 45.0633 -93.4708 185° South 128 147 4,000 -540 Descending Minneapolis Center
09:57PM 45.0311 -93.4572 163° South 120 138 3,500 -540 Descending Minneapolis Center
09:58PM 44.9894 -93.4383 162° South 129 148 3,000 -300 Descending Minneapolis Center
09:59PM 44.9639 -93.4056 138° Southeast 127 146 3,000  Level Minneapolis Center
10:00PM 44.9444 -93.3656 124° Southeast 127 146 3,000 -300 Level Minneapolis Center
10:01PM 44.9278 -93.3267 121° Southeast 121 139 2,400 -660 Descending Minneapolis Center
10:02PM 44.9111 -93.2878 121° Southeast 118 136 1,700 -660 Descending Minneapolis Center
10:03PM 44.8958 -93.2519 121° Southeast 108 124 1,100 -600 Descending Minneapolis Center
10:05PM 44.8820 -93.2218 125° Southeast  Level Estimated
10:12PM 44.8820 -93.2218 125° Southeast  Level Estimated